createdAt,value
2019-03-12T00:00:34.690Z,101766.22
2019-03-12T00:03:03.118Z,101772.21
2019-03-12T00:05:31.533Z,101765.41
2019-03-12T00:07:59.943Z,101767.00
2019-03-12T00:10:28.439Z,101766.44
2019-03-12T00:12:56.908Z,101771.10
2019-03-12T00:15:25.378Z,101772.50
2019-03-12T00:17:53.859Z,101772.98
2019-03-12T00:20:22.305Z,101774.56
2019-03-12T00:22:50.794Z,101780.73
2019-03-12T00:25:19.278Z,101341.73
2019-03-12T00:27:47.680Z,101782.59
2019-03-12T00:30:16.219Z,101783.38
2019-03-12T00:32:44.661Z,101773.88
2019-03-12T00:35:13.252Z,101769.77
2019-03-12T00:37:41.705Z,101770.70
2019-03-12T00:40:10.364Z,101764.95
2019-03-12T00:42:38.754Z,101753.88
2019-03-12T00:45:09.733Z,101760.98
2019-03-12T00:47:38.250Z,101757.98
2019-03-12T00:50:09.095Z,101762.39
2019-03-12T00:52:37.582Z,101761.05
2019-03-12T00:55:08.091Z,101759.53
2019-03-12T00:57:36.586Z,101763.12
2019-03-12T01:00:10.986Z,101764.74
2019-03-12T01:02:39.406Z,101757.94
2019-03-12T01:05:08.223Z,101764.27
2019-03-12T01:07:36.634Z,101766.02
2019-03-12T01:10:07.580Z,101760.53
2019-03-12T01:12:36.021Z,101752.00
2019-03-12T01:15:05.977Z,101746.19
2019-03-12T01:17:34.377Z,101746.84
2019-03-12T01:20:02.934Z,101742.27
2019-03-12T01:22:31.398Z,101744.31
2019-03-12T01:24:59.805Z,101740.52
2019-03-12T01:27:28.233Z,101737.99
2019-03-12T01:29:56.698Z,101739.95
2019-03-12T01:32:25.261Z,101736.95
2019-03-12T01:34:53.698Z,101738.05
2019-03-12T01:37:22.118Z,101729.72
2019-03-12T01:39:50.575Z,101742.33
2019-03-12T01:42:18.957Z,101737.49
2019-03-12T01:44:47.351Z,101734.18
2019-03-12T01:47:15.959Z,101739.50
2019-03-12T01:49:44.479Z,101738.89
2019-03-12T01:52:12.955Z,101729.73
2019-03-12T01:54:41.388Z,101725.84
2019-03-12T01:57:09.856Z,101719.52
2019-03-12T01:59:38.288Z,101717.95
2019-03-12T02:02:06.759Z,101717.65
2019-03-12T02:04:35.235Z,101710.84
2019-03-12T02:07:03.743Z,101709.75
2019-03-12T02:09:32.255Z,101707.80
2019-03-12T02:12:00.677Z,101693.32
2019-03-12T02:14:29.530Z,101680.98
2019-03-12T02:16:58.032Z,101673.40
2019-03-12T02:19:26.525Z,101669.22
2019-03-12T02:21:55.076Z,101661.77
2019-03-12T02:24:23.567Z,101655.48
2019-03-12T02:26:51.950Z,101646.66
2019-03-12T02:29:20.447Z,101649.78
2019-03-12T02:31:48.929Z,101650.44
2019-03-12T02:34:17.421Z,101640.63
2019-03-12T02:36:45.911Z,101642.06
2019-03-12T02:39:14.359Z,101643.02
2019-03-12T02:41:42.812Z,101634.44
2019-03-12T02:44:11.224Z,101633.48
2019-03-12T02:46:39.650Z,101625.64
2019-03-12T02:49:09.820Z,101627.38
2019-03-12T02:51:38.252Z,101634.39
2019-03-12T02:54:06.640Z,101633.53
2019-03-12T02:56:35.057Z,101628.00
2019-03-12T02:59:03.474Z,101621.50
2019-03-12T03:01:31.881Z,101627.44
2019-03-12T03:04:00.281Z,101625.44
2019-03-12T03:06:30.318Z,101624.18
2019-03-12T03:08:58.801Z,101627.02
2019-03-12T03:11:27.369Z,101624.79
2019-03-12T03:13:55.796Z,101618.00
2019-03-12T03:16:24.786Z,101617.30
2019-03-12T03:18:53.231Z,101613.69
2019-03-12T03:21:21.915Z,101621.38
2019-03-12T03:23:50.304Z,101615.55
2019-03-12T03:26:18.726Z,101612.16
2019-03-12T03:28:47.179Z,101618.60
2019-03-12T03:31:15.616Z,101625.22
2019-03-12T03:33:44.125Z,101619.39
2019-03-12T03:36:12.567Z,101618.03
2019-03-12T03:38:40.980Z,101623.44
2019-03-12T03:41:09.422Z,101617.91
2019-03-12T03:43:37.870Z,101617.87
2019-03-12T03:46:06.268Z,101614.28
2019-03-12T03:48:34.679Z,101603.56
2019-03-12T03:51:03.146Z,101600.88
2019-03-12T03:53:31.682Z,101597.17
2019-03-12T03:56:00.083Z,101599.56
2019-03-12T03:58:28.591Z,101593.33
2019-03-12T04:00:57.065Z,101594.85
2019-03-12T04:03:25.482Z,101588.92
2019-03-12T04:05:53.877Z,101583.99
2019-03-12T04:08:22.385Z,101581.18
2019-03-12T04:10:50.787Z,101572.98
2019-03-12T04:13:19.284Z,101569.79
2019-03-12T04:15:47.715Z,101565.30
2019-03-12T04:18:16.169Z,101557.80
2019-03-12T04:20:44.591Z,101553.14
2019-03-12T04:23:15.797Z,101555.97
2019-03-12T04:25:43.725Z,101546.43
2019-03-12T04:28:12.118Z,101550.70
2019-03-12T04:30:40.532Z,101543.51
2019-03-12T04:33:28.394Z,101546.99
2019-03-12T04:35:56.803Z,101541.71
2019-03-12T04:38:25.224Z,101537.22
2019-03-12T04:40:53.638Z,101541.80
2019-03-12T04:43:22.169Z,101539.74
2019-03-12T04:45:50.591Z,101526.72
2019-03-12T04:48:18.971Z,101528.09
2019-03-12T04:50:47.421Z,101516.41
2019-03-12T04:53:15.850Z,101514.05
2019-03-12T04:55:44.242Z,101508.13
2019-03-12T04:58:12.669Z,101507.41
2019-03-12T05:00:41.131Z,101496.52
2019-03-12T05:03:09.612Z,101499.98
2019-03-12T05:05:38.011Z,101495.09
2019-03-12T05:08:06.443Z,101488.94
2019-03-12T05:10:34.852Z,101482.93
2019-03-12T05:13:03.266Z,101477.40
2019-03-12T05:15:31.752Z,101477.48
2019-03-12T05:18:00.149Z,101484.67
2019-03-12T05:20:28.583Z,101479.46
2019-03-12T05:22:56.987Z,101478.20
2019-03-12T05:25:25.408Z,101479.46
2019-03-12T05:27:53.849Z,101479.62
2019-03-12T05:30:22.258Z,101469.23
2019-03-12T05:32:50.742Z,101464.17
2019-03-12T05:35:19.235Z,101458.33
2019-03-12T05:37:47.652Z,101460.55
2019-03-12T05:40:16.722Z,101459.28
2019-03-12T05:42:45.207Z,101457.78
2019-03-12T05:45:15.646Z,101449.80
2019-03-12T05:47:44.219Z,101446.87
2019-03-12T05:50:20.093Z,101445.38
2019-03-12T05:52:49.523Z,101437.16
2019-03-12T05:55:18.948Z,101441.45
2019-03-12T05:57:47.469Z,101441.62
2019-03-12T06:00:23.393Z,101433.23
2019-03-12T06:02:51.861Z,101429.45
2019-03-12T06:05:20.341Z,101425.34
2019-03-12T06:07:48.841Z,101420.83
2019-03-12T06:10:17.386Z,101421.70
2019-03-12T06:12:45.943Z,101418.53
2019-03-12T06:15:15.711Z,101412.00
2019-03-12T06:17:44.192Z,101404.02
2019-03-12T06:20:14.771Z,101401.25
2019-03-12T06:22:43.256Z,101397.28
2019-03-12T06:25:12.199Z,101398.55
2019-03-12T06:27:41.510Z,101108.23
2019-03-12T06:30:18.699Z,101384.55
2019-03-12T06:32:57.325Z,101387.73
2019-03-12T06:35:33.524Z,101384.41
2019-03-12T06:38:18.646Z,101380.83
2019-03-12T06:41:00.763Z,101382.65
2019-03-12T06:43:33.562Z,101373.86
2019-03-12T06:46:20.211Z,101367.29
2019-03-12T06:48:50.400Z,101359.41
2019-03-12T06:51:26.291Z,101355.36
2019-03-12T06:54:11.663Z,101349.58
2019-03-12T06:56:47.189Z,101343.80
2019-03-12T06:59:23.039Z,101335.48
2019-03-12T07:01:56.186Z,101327.55
2019-03-12T07:04:32.287Z,101326.94
2019-03-12T07:07:11.424Z,101325.81
2019-03-12T07:09:52.316Z,101312.03
2019-03-12T07:12:22.441Z,101314.70
2019-03-12T07:14:55.189Z,101299.19
2019-03-12T07:17:31.150Z,101299.33
2019-03-12T07:20:07.262Z,101289.84
2019-03-12T07:22:43.198Z,101290.45
2019-03-12T07:25:19.376Z,101278.80
2019-03-12T07:27:55.033Z,101277.27
2019-03-12T07:30:34.124Z,101284.30
2019-03-12T07:33:22.102Z,101286.97
2019-03-12T07:35:54.652Z,101285.12
2019-03-12T07:38:24.690Z,101284.63
2019-03-12T07:41:07.221Z,101270.89
2019-03-12T07:43:39.773Z,101268.22
2019-03-12T07:46:09.875Z,101263.86
2019-03-12T07:48:40.000Z,101258.45
2019-03-12T07:51:12.708Z,101256.52
2019-03-12T07:53:59.437Z,101256.38
2019-03-12T07:56:35.476Z,101248.47
2019-03-12T07:59:21.539Z,101255.80
2019-03-12T08:02:00.382Z,101252.53
2019-03-12T08:04:36.172Z,101231.52
2019-03-12T08:07:09.391Z,101229.63
2019-03-12T08:09:41.910Z,101223.05
2019-03-12T08:12:17.689Z,101219.90
2019-03-12T08:14:47.754Z,101215.82
2019-03-12T08:17:17.879Z,101200.88
2019-03-12T08:20:03.899Z,101182.11
2019-03-12T08:22:36.617Z,101174.34
2019-03-12T08:25:11.211Z,101153.85
2019-03-12T08:27:44.088Z,101162.85
2019-03-12T08:30:30.744Z,101164.76
2019-03-12T08:33:03.301Z,101165.86
2019-03-12T08:35:39.038Z,101148.71
2019-03-12T08:38:18.124Z,101138.39
2019-03-12T08:40:52.685Z,101139.88
2019-03-12T08:43:23.046Z,101139.39
2019-03-12T08:45:53.126Z,101130.73
2019-03-12T08:48:35.076Z,101120.78
2019-03-12T08:51:21.369Z,101113.49
2019-03-12T08:53:54.407Z,101111.98
2019-03-12T08:56:32.866Z,101101.72
2019-03-12T08:59:18.454Z,101101.47
2019-03-12T09:01:51.551Z,101094.51
2019-03-12T09:04:39.735Z,101080.74
2019-03-12T09:07:24.939Z,101079.73
2019-03-12T09:09:55.025Z,101076.27
2019-03-12T09:12:25.083Z,101073.06
2019-03-12T09:14:55.209Z,101057.59
2019-03-12T09:17:25.335Z,101051.13
2019-03-12T09:20:11.618Z,101055.16
2019-03-12T09:22:41.669Z,101046.55
2019-03-12T09:25:24.011Z,101036.16
2019-03-12T09:28:12.403Z,101040.50
2019-03-12T09:31:00.461Z,101033.16
2019-03-12T09:33:33.356Z,101019.63
2019-03-12T09:36:12.559Z,101009.75
2019-03-12T09:38:42.606Z,101002.17
2019-03-12T09:41:12.798Z,100990.81
2019-03-12T09:43:52.101Z,100990.03
2019-03-12T09:46:28.141Z,100981.22
2019-03-12T09:48:58.205Z,100970.27
2019-03-12T09:51:33.971Z,100973.14
2019-03-12T09:54:04.029Z,100976.95
2019-03-12T09:56:50.411Z,100971.13
2019-03-12T09:59:20.479Z,100965.34
2019-03-12T10:02:02.505Z,100963.25
2019-03-12T10:04:38.575Z,100957.80
2019-03-12T10:07:24.798Z,100945.66
2019-03-12T10:09:57.470Z,100946.88
2019-03-12T10:12:30.865Z,100927.39
2019-03-12T10:15:00.900Z,100917.70
2019-03-12T10:17:36.802Z,100903.75
2019-03-12T10:20:12.444Z,100892.57
2019-03-12T10:22:42.520Z,100888.50
2019-03-12T10:25:12.666Z,100881.02
2019-03-12T10:27:45.407Z,100868.78
2019-03-12T10:30:27.659Z,100880.68
2019-03-12T10:32:57.766Z,100865.22
2019-03-12T10:35:42.604Z,100860.28
2019-03-12T10:38:55.278Z,100849.72
2019-03-12T10:41:28.037Z,100837.09
2019-03-12T10:43:57.506Z,100829.49
2019-03-12T10:46:27.584Z,100824.44
2019-03-12T10:48:56.013Z,100808.50
2019-03-12T10:51:25.096Z,100793.70
2019-03-12T10:53:53.578Z,100793.70
2019-03-12T10:56:21.999Z,100803.72
2019-03-12T10:58:50.498Z,100791.95
2019-03-12T11:01:18.875Z,100786.16
2019-03-12T11:03:47.297Z,100765.55
2019-03-12T11:06:15.773Z,100767.05
2019-03-12T11:08:44.212Z,100754.11
2019-03-12T11:11:12.685Z,100753.25
2019-03-12T11:13:41.113Z,100750.83
2019-03-12T11:16:09.626Z,100734.41
2019-03-12T11:18:38.105Z,100723.91
2019-03-12T11:21:06.611Z,100720.83
2019-03-12T11:23:35.045Z,100718.22
2019-03-12T11:26:03.547Z,100722.55
2019-03-12T11:28:32.025Z,100712.34
2019-03-12T11:31:00.451Z,100707.25
2019-03-12T11:33:28.926Z,100704.25
2019-03-12T11:35:57.375Z,100696.22
2019-03-12T11:38:25.813Z,100692.53
2019-03-12T11:40:54.270Z,100688.67
2019-03-12T11:43:22.875Z,100684.91
2019-03-12T11:45:51.367Z,100673.84
2019-03-12T11:48:19.782Z,100671.86
2019-03-12T11:50:48.244Z,100655.88
2019-03-12T11:53:16.680Z,100654.45
2019-03-12T11:55:45.174Z,100649.05
2019-03-12T11:58:13.684Z,100655.84
2019-03-12T12:00:43.834Z,100643.83
2019-03-12T12:03:12.384Z,100638.77
2019-03-12T12:05:40.938Z,100510.80
2019-03-12T12:08:09.422Z,100626.48
2019-03-12T12:10:38.595Z,100622.34
2019-03-12T12:13:07.081Z,100607.22
2019-03-12T12:15:35.637Z,100601.65
2019-03-12T12:18:04.400Z,100594.44
2019-03-12T12:20:32.827Z,100584.23
2019-03-12T12:23:01.245Z,100572.73
2019-03-12T12:25:29.734Z,100571.53
2019-03-12T12:27:58.235Z,100560.14
2019-03-12T12:30:26.779Z,100552.88
2019-03-12T12:32:55.276Z,100562.27
2019-03-12T12:35:23.685Z,100532.45
2019-03-12T12:37:52.158Z,100532.44
2019-03-12T12:40:22.023Z,100517.19
2019-03-12T12:42:50.506Z,100522.41
2019-03-12T12:45:33.419Z,100503.37
2019-03-12T12:48:01.874Z,100496.62
2019-03-12T12:50:30.520Z,100487.41
2019-03-12T12:52:59.103Z,100468.77
2019-03-12T12:55:27.586Z,100471.77
2019-03-12T12:57:56.104Z,100461.57
2019-03-12T13:00:31.543Z,100457.70
2019-03-12T13:03:00.158Z,100445.80
2019-03-12T13:05:28.743Z,100438.58
2019-03-12T13:07:57.159Z,100433.58
2019-03-12T13:10:29.909Z,100431.04
2019-03-12T13:12:58.395Z,100416.58
2019-03-12T13:15:26.817Z,100397.86
2019-03-12T13:17:55.299Z,100386.41
2019-03-12T13:20:24.000Z,100371.55
2019-03-12T13:22:52.620Z,100369.86
2019-03-12T13:25:21.374Z,100363.49
2019-03-12T13:27:49.864Z,100351.50
2019-03-12T13:30:26.368Z,100345.17
2019-03-12T13:32:54.841Z,100322.31
2019-03-12T13:35:23.422Z,100318.48
2019-03-12T13:37:51.942Z,100305.33
2019-03-12T13:40:22.421Z,100303.59
2019-03-12T13:42:51.133Z,100297.54
2019-03-12T13:45:22.224Z,100292.44
2019-03-12T13:47:50.834Z,100287.33
2019-03-12T13:50:19.549Z,100283.98
2019-03-12T13:52:48.085Z,100271.63
2019-03-12T13:55:17.136Z,100266.11
2019-03-12T13:57:46.116Z,100256.30
2019-03-12T14:00:23.042Z,100252.38
2019-03-12T14:02:51.521Z,100251.52
2019-03-12T14:05:20.261Z,100233.62
2019-03-12T14:07:48.829Z,100236.59
2019-03-12T14:10:22.773Z,100220.84
2019-03-12T14:12:53.400Z,100202.94
2019-03-12T14:15:37.892Z,99716.34
2019-03-12T14:18:06.530Z,100201.17
2019-03-12T14:20:52.629Z,100193.49
2019-03-12T14:23:33.029Z,100183.69
2019-03-12T14:26:01.613Z,100170.90
2019-03-12T14:28:30.119Z,100163.23
2019-03-12T14:30:58.699Z,100157.70
2019-03-12T14:33:27.305Z,100156.43
2019-03-12T14:35:55.774Z,100133.02
2019-03-12T14:38:24.554Z,100127.89
2019-03-12T14:40:53.138Z,100126.62
2019-03-12T14:43:21.626Z,100103.19
2019-03-12T14:45:51.753Z,100101.05
2019-03-12T14:48:39.135Z,100103.17
2019-03-12T14:51:13.523Z,100087.80
2019-03-12T14:53:43.589Z,100075.03
2019-03-12T14:56:12.074Z,100071.20
2019-03-12T14:58:40.633Z,100068.23
2019-03-12T15:01:09.012Z,100055.03
2019-03-12T15:03:37.402Z,100062.70
2019-03-12T15:06:05.974Z,100045.66
2019-03-12T15:08:34.466Z,100039.28
2019-03-12T15:11:03.007Z,100035.02
2019-03-12T15:13:31.447Z,100019.27
2019-03-12T15:15:59.845Z,100004.80
2019-03-12T15:18:28.264Z,99995.85
2019-03-12T15:20:56.671Z,99991.17
2019-03-12T15:23:25.074Z,99980.11
2019-03-12T15:25:53.546Z,99972.87
2019-03-12T15:28:21.944Z,99966.05
2019-03-12T15:30:50.503Z,99960.94
2019-03-12T15:33:18.912Z,99953.27
2019-03-12T15:35:47.384Z,99936.26
2019-03-12T15:38:15.913Z,99930.72
2019-03-12T15:40:44.370Z,99923.06
2019-03-12T15:43:12.787Z,99921.77
2019-03-12T15:45:41.194Z,99900.92
2019-03-12T15:48:09.697Z,99912.84
2019-03-12T15:50:38.106Z,99900.92
2019-03-12T15:53:07.281Z,99890.70
2019-03-12T15:55:36.173Z,99878.79
2019-03-12T15:58:04.679Z,99874.97
2019-03-12T16:00:33.084Z,99861.77
2019-03-12T16:03:01.501Z,99849.85
2019-03-12T16:05:30.027Z,99839.20
2019-03-12T16:07:58.438Z,99832.41
2019-03-12T16:10:26.854Z,99829.84
2019-03-12T16:12:55.235Z,99803.89
2019-03-12T16:15:23.712Z,99807.29
2019-03-12T16:17:52.191Z,99800.05
2019-03-12T16:20:24.084Z,99794.95
2019-03-12T16:22:52.473Z,99794.95
2019-03-12T16:25:20.879Z,99783.03
2019-03-12T16:27:49.286Z,99777.50
2019-03-12T16:30:19.140Z,99771.55
2019-03-12T16:32:47.547Z,99756.64
2019-03-12T16:35:16.103Z,99751.12
2019-03-12T16:37:44.491Z,99743.88
2019-03-12T16:40:17.460Z,99743.45
2019-03-12T16:42:46.026Z,99731.54
2019-03-12T16:45:16.706Z,99720.47
2019-03-12T16:47:45.219Z,99708.12
2019-03-12T16:50:18.073Z,99700.47
2019-03-12T16:52:46.577Z,99702.16
2019-03-12T16:55:18.740Z,99699.62
2019-03-12T16:57:47.164Z,99712.39
2019-03-12T17:00:20.132Z,99688.53
2019-03-12T17:02:48.572Z,99680.48
2019-03-12T17:05:17.134Z,99691.96
2019-03-12T17:07:45.569Z,99700.47
2019-03-12T17:10:16.648Z,99700.05
2019-03-12T17:12:45.186Z,99697.47
2019-03-12T17:15:15.934Z,99695.77
2019-03-12T17:17:44.443Z,99688.12
2019-03-12T17:20:14.557Z,99660.88
2019-03-12T17:22:43.037Z,99646.41
2019-03-12T17:25:14.614Z,99640.05
2019-03-12T17:27:43.201Z,99639.17
2019-03-12T17:30:17.088Z,99632.37
2019-03-12T17:32:45.724Z,99641.73
2019-03-12T17:35:19.824Z,99632.37
2019-03-12T17:37:48.230Z,99599.17
2019-03-12T17:40:19.278Z,99595.80
2019-03-12T17:42:47.757Z,99588.13
2019-03-12T17:45:16.229Z,99579.22
2019-03-12T17:47:44.665Z,99592.83
2019-03-12T17:50:14.239Z,99581.77
2019-03-12T17:52:42.774Z,99575.79
2019-03-12T17:55:14.265Z,99565.58
2019-03-12T17:57:43.126Z,99563.88
2019-03-12T18:00:23.604Z,99549.02
2019-03-12T18:02:52.102Z,99538.38
2019-03-12T18:05:20.503Z,99547.31
2019-03-12T18:07:48.929Z,99535.83
2019-03-12T18:10:18.915Z,99527.30
2019-03-12T18:12:47.695Z,99522.64
2019-03-12T18:44:08.118Z,99451.97
2019-03-12T18:46:36.550Z,99440.47
2019-03-12T18:49:05.053Z,99437.48
2019-03-12T18:51:33.522Z,99436.22
2019-03-12T18:54:01.944Z,99428.13
2019-03-12T18:56:30.346Z,99414.94
2019-03-12T18:58:58.806Z,99409.00
2019-03-12T19:01:27.307Z,99401.75
2019-03-12T19:03:55.737Z,99385.16
2019-03-12T19:06:24.149Z,99394.95
2019-03-12T19:08:52.769Z,99389.85
2019-03-12T19:11:21.208Z,99396.66
2019-03-12T19:13:49.720Z,99403.45
2019-03-12T19:16:18.111Z,99399.19
2019-03-12T19:18:46.678Z,99408.56
2019-03-12T19:21:15.075Z,99414.51
2019-03-12T19:23:43.581Z,99410.23
2019-03-12T19:26:11.985Z,99406.84
2019-03-12T19:28:40.444Z,99411.54
2019-03-12T19:31:10.547Z,99415.85
2019-03-12T19:33:38.988Z,99406.93
2019-03-12T19:36:07.453Z,99390.38
2019-03-12T19:38:35.868Z,99394.23
2019-03-12T19:41:06.358Z,99399.74
2019-03-12T19:43:34.882Z,99394.23
2019-03-12T19:46:03.384Z,99403.57
2019-03-12T19:48:31.888Z,99386.98
2019-03-12T19:51:00.292Z,99383.60
2019-03-12T19:53:28.759Z,99389.14
2019-03-12T19:56:00.232Z,99368.28
2019-03-12T19:58:28.883Z,99375.12
2019-03-12T20:00:58.156Z,99363.63
2019-03-12T20:03:26.703Z,99366.17
2019-03-12T20:05:55.243Z,99366.18
2019-03-12T20:08:23.665Z,99365.31
2019-03-12T20:11:00.895Z,99362.78
2019-03-12T20:13:41.254Z,99361.52
2019-03-12T20:16:30.949Z,99339.00
2019-03-12T20:19:26.378Z,99347.52
2019-03-12T20:22:22.092Z,99336.88
2019-03-12T20:25:10.064Z,99341.94
2019-03-12T20:27:45.289Z,99336.41
2019-03-12T20:30:22.469Z,99336.46
2019-03-12T20:33:22.038Z,99327.53
2019-03-12T20:35:56.077Z,99322.02
2019-03-12T20:38:36.759Z,99322.03
2019-03-12T20:41:27.550Z,99321.57
2019-03-12T20:44:07.774Z,99319.83
2019-03-12T20:47:13.124Z,99318.52
2019-03-12T20:50:19.096Z,99323.64
2019-03-12T20:53:22.277Z,99338.92
2019-03-12T20:55:59.646Z,99320.14
2019-03-12T20:58:56.295Z,99334.61
2019-03-12T21:01:56.457Z,99332.83
2019-03-12T21:04:44.567Z,99343.43
2019-03-12T21:07:47.691Z,99354.55
2019-03-12T21:10:44.833Z,99361.35
2019-03-12T21:13:40.457Z,99368.58
2019-03-12T21:16:20.596Z,99416.71
2019-03-12T21:19:14.304Z,99542.21
2019-03-12T21:22:03.923Z,99513.87
2019-03-12T21:24:47.582Z,99516.53
2019-03-12T21:27:21.845Z,99558.16
2019-03-12T21:29:49.685Z,99565.53
2019-03-12T21:32:19.054Z,99547.55
2019-03-12T21:34:47.750Z,99565.25
2019-03-12T21:37:16.366Z,99573.30
2019-03-12T21:39:54.424Z,99577.08
2019-03-12T21:42:15.229Z,99617.25
2019-03-12T21:44:43.781Z,99615.12
2019-03-12T21:47:12.342Z,99622.17
2019-03-12T21:49:40.843Z,99635.20
2019-03-12T21:52:09.378Z,99640.24
2019-03-12T21:54:37.958Z,99640.59
2019-03-12T21:57:06.346Z,99639.80
2019-03-12T21:59:34.839Z,99654.97
2019-03-12T22:02:03.349Z,99671.81
2019-03-12T22:04:31.723Z,99670.52
2019-03-12T22:07:00.196Z,99660.33
2019-03-12T22:09:28.766Z,99670.48
2019-03-12T22:11:57.255Z,99688.67
2019-03-12T22:14:25.720Z,99699.20
2019-03-12T22:16:54.932Z,99693.29
2019-03-12T22:19:23.343Z,99697.95
2019-03-12T22:21:56.295Z,99712.32
2019-03-12T22:24:24.669Z,99728.03
2019-03-12T22:26:53.114Z,99728.03
2019-03-12T22:29:21.528Z,99717.48
2019-03-12T22:31:50.055Z,99726.38
2019-03-12T22:34:18.477Z,99737.39
2019-03-12T22:36:46.856Z,99726.34
2019-03-12T22:39:15.279Z,99728.06
2019-03-12T22:41:43.692Z,99733.98
2019-03-12T22:44:12.109Z,99742.08
2019-03-12T22:46:40.507Z,99752.66
2019-03-12T22:49:08.912Z,99753.61
2019-03-12T22:51:37.324Z,99756.15
2019-03-12T22:54:05.816Z,99759.10
2019-03-12T22:56:34.221Z,99758.17
2019-03-12T22:59:02.713Z,99767.94
2019-03-12T23:01:31.319Z,99764.59
2019-03-12T23:03:59.728Z,99761.64
2019-03-12T23:06:28.908Z,99767.98
2019-03-12T23:08:57.806Z,99778.14
2019-03-12T23:11:26.465Z,99777.31
2019-03-12T23:13:55.025Z,99786.61
2019-03-12T23:16:23.536Z,99787.88
2019-03-12T23:18:51.986Z,99792.55
2019-03-12T23:21:20.448Z,99800.14
2019-03-12T23:23:48.880Z,99806.51
2019-03-12T23:26:17.334Z,99812.44
2019-03-12T23:28:45.733Z,99814.14
2019-03-12T23:31:14.206Z,99813.30
2019-03-12T23:33:42.819Z,99824.70
2019-03-12T23:36:11.632Z,99823.86
2019-03-12T23:38:40.112Z,99832.31
2019-03-12T23:41:08.554Z,99842.47
2019-03-12T23:43:37.008Z,99836.99
2019-03-12T23:46:05.751Z,99836.56
2019-03-12T23:48:34.171Z,99845.05
2019-03-12T23:51:02.834Z,99847.55
2019-03-12T23:53:31.306Z,99845.86
2019-03-12T23:55:59.792Z,99849.25
2019-03-12T23:58:30.387Z,99863.61
